sensor_id;sensor_type;location;lat;lon;timestamp;temperature;humidity
14727;DHT22;7454;51.256;8.176;2023-07-24T00:00:24;17.80;76.30
14727;DHT22;7454;51.256;8.176;2023-07-24T00:02:49;17.70;76.30
14727;DHT22;7454;51.256;8.176;2023-07-24T00:05:15;17.70;76.20
14727;DHT22;7454;51.256;8.176;2023-07-24T00:07:41;17.70;76.20
14727;DHT22;7454;51.256;8.176;2023-07-24T00:10:07;17.80;76.30
14727;DHT22;7454;51.256;8.176;2023-07-24T00:12:34;17.70;76.30
14727;DHT22;7454;51.256;8.176;2023-07-24T00:15:00;17.70;76.30
14727;DHT22;7454;51.256;8.176;2023-07-24T00:17:26;17.70;76.40
14727;DHT22;7454;51.256;8.176;2023-07-24T00:19:54;17.70;76.40
14727;DHT22;7454;51.256;8.176;2023-07-24T00:22:24;17.70;76.30
14727;DHT22;7454;51.256;8.176;2023-07-24T00:24:50;17.70;76.30
14727;DHT22;7454;51.256;8.176;2023-07-24T00:27:15;17.70;76.40
14727;DHT22;7454;51.256;8.176;2023-07-24T00:29:41;17.70;76.50
14727;DHT22;7454;51.256;8.176;2023-07-24T00:32:07;17.60;76.50
14727;DHT22;7454;51.256;8.176;2023-07-24T00:34:35;17.70;76.50
14727;DHT22;7454;51.256;8.176;2023-07-24T00:37:03;17.70;76.40
14727;DHT22;7454;51.256;8.176;2023-07-24T00:39:29;17.60;76.50
14727;DHT22;7454;51.256;8.176;2023-07-24T00:41:56;17.60;76.50
14727;DHT22;7454;51.256;8.176;2023-07-24T00:44:22;17.70;76.60
14727;DHT22;7454;51.256;8.176;2023-07-24T00:46:50;17.50;76.60
14727;DHT22;7454;51.256;8.176;2023-07-24T00:49:19;17.60;76.60
14727;DHT22;7454;51.256;8.176;2023-07-24T00:51:45;17.60;76.70
14727;DHT22;7454;51.256;8.176;2023-07-24T00:54:13;17.60;76.60
14727;DHT22;7454;51.256;8.176;2023-07-24T00:56:40;17.60;76.60
14727;DHT22;7454;51.256;8.176;2023-07-24T00:59:06;17.60;76.70
14727;DHT22;7454;51.256;8.176;2023-07-24T01:01:31;17.60;76.60
14727;DHT22;7454;51.256;8.176;2023-07-24T01:03:57;17.60;76.60
14727;DHT22;7454;51.256;8.176;2023-07-24T01:06:24;17.60;76.60
14727;DHT22;7454;51.256;8.176;2023-07-24T01:08:50;17.60;76.60
14727;DHT22;7454;51.256;8.176;2023-07-24T01:11:18;17.60;76.50
14727;DHT22;7454;51.256;8.176;2023-07-24T01:13:48;17.60;76.50
14727;DHT22;7454;51.256;8.176;2023-07-24T01:16:21;17.60;76.40
14727;DHT22;7454;51.256;8.176;2023-07-24T01:18:48;17.60;76.40
14727;DHT22;7454;51.256;8.176;2023-07-24T01:21:17;17.60;76.50
14727;DHT22;7454;51.256;8.176;2023-07-24T01:23:55;17.50;76.40
14727;DHT22;7454;51.256;8.176;2023-07-24T01:26:25;17.50;76.40
14727;DHT22;7454;51.256;8.176;2023-07-24T01:28:51;17.60;76.40
14727;DHT22;7454;51.256;8.176;2023-07-24T01:31:17;17.50;76.40
14727;DHT22;7454;51.256;8.176;2023-07-24T01:33:43;17.60;76.50
14727;DHT22;7454;51.256;8.176;2023-07-24T01:36:09;17.60;76.70
14727;DHT22;7454;51.256;8.176;2023-07-24T01:38:35;17.50;76.60
14727;DHT22;7454;51.256;8.176;2023-07-24T01:41:05;17.60;76.60
14727;DHT22;7454;51.256;8.176;2023-07-24T01:43:30;17.40;76.50
14727;DHT22;7454;51.256;8.176;2023-07-24T01:45:57;17.40;76.50
14727;DHT22;7454;51.256;8.176;2023-07-24T01:48:23;17.40;76.50
14727;DHT22;7454;51.256;8.176;2023-07-24T01:50:49;17.50;76.50
14727;DHT22;7454;51.256;8.176;2023-07-24T01:53:15;17.40;76.50
14727;DHT22;7454;51.256;8.176;2023-07-24T01:55:41;17.30;76.40
14727;DHT22;7454;51.256;8.176;2023-07-24T01:58:07;17.30;76.50
14727;DHT22;7454;51.256;8.176;2023-07-24T02:00:33;17.30;76.50
14727;DHT22;7454;51.256;8.176;2023-07-24T02:02:58;17.40;76.60
14727;DHT22;7454;51.256;8.176;2023-07-24T02:05:24;17.40;76.50
14727;DHT22;7454;51.256;8.176;2023-07-24T02:07:50;17.20;76.50
14727;DHT22;7454;51.256;8.176;2023-07-24T02:10:16;17.20;76.50
14727;DHT22;7454;51.256;8.176;2023-07-24T02:12:42;17.10;76.40
14727;DHT22;7454;51.256;8.176;2023-07-24T02:15:07;17.10;76.40
14727;DHT22;7454;51.256;8.176;2023-07-24T02:17:34;17.10;76.40
14727;DHT22;7454;51.256;8.176;2023-07-24T02:20:00;17.10;76.50
14727;DHT22;7454;51.256;8.176;2023-07-24T02:22:27;17.20;76.60
14727;DHT22;7454;51.256;8.176;2023-07-24T02:24:52;17.00;76.60
14727;DHT22;7454;51.256;8.176;2023-07-24T02:27:28;17.10;76.70
14727;DHT22;7454;51.256;8.176;2023-07-24T02:29:57;17.10;76.70
14727;DHT22;7454;51.256;8.176;2023-07-24T02:32:23;17.10;76.70
14727;DHT22;7454;51.256;8.176;2023-07-24T02:34:49;17.10;76.70
14727;DHT22;7454;51.256;8.176;2023-07-24T02:37:16;17.10;76.70
14727;DHT22;7454;51.256;8.176;2023-07-24T02:39:41;17.00;76.60
14727;DHT22;7454;51.256;8.176;2023-07-24T02:42:07;17.10;76.60
14727;DHT22;7454;51.256;8.176;2023-07-24T02:44:36;17.10;76.60
14727;DHT22;7454;51.256;8.176;2023-07-24T02:47:02;17.00;76.50
14727;DHT22;7454;51.256;8.176;2023-07-24T02:49:28;17.00;76.60
14727;DHT22;7454;51.256;8.176;2023-07-24T02:51:54;16.90;76.60
14727;DHT22;7454;51.256;8.176;2023-07-24T02:54:20;17.10;76.60
14727;DHT22;7454;51.256;8.176;2023-07-24T02:56:45;17.00;76.50
14727;DHT22;7454;51.256;8.176;2023-07-24T02:59:11;17.00;76.50
14727;DHT22;7454;51.256;8.176;2023-07-24T03:01:37;17.00;76.50
14727;DHT22;7454;51.256;8.176;2023-07-24T03:04:02;16.90;76.60
14727;DHT22;7454;51.256;8.176;2023-07-24T03:06:30;16.90;76.60
14727;DHT22;7454;51.256;8.176;2023-07-24T03:08:56;17.00;76.70
14727;DHT22;7454;51.256;8.176;2023-07-24T03:11:23;17.00;76.70
14727;DHT22;7454;51.256;8.176;2023-07-24T03:13:49;17.00;76.70
14727;DHT22;7454;51.256;8.176;2023-07-24T03:16:15;17.00;76.70
14727;DHT22;7454;51.256;8.176;2023-07-24T03:18:42;17.10;76.70
14727;DHT22;7454;51.256;8.176;2023-07-24T03:21:08;17.10;76.70
14727;DHT22;7454;51.256;8.176;2023-07-24T03:23:34;17.00;76.60
14727;DHT22;7454;51.256;8.176;2023-07-24T03:26:00;17.10;76.60
14727;DHT22;7454;51.256;8.176;2023-07-24T03:28:25;17.00;76.60
14727;DHT22;7454;51.256;8.176;2023-07-24T03:30:52;16.90;76.60
14727;DHT22;7454;51.256;8.176;2023-07-24T03:33:18;17.10;76.70
14727;DHT22;7454;51.256;8.176;2023-07-24T03:35:45;17.00;76.80
14727;DHT22;7454;51.256;8.176;2023-07-24T03:38:10;17.00;76.80
14727;DHT22;7454;51.256;8.176;2023-07-24T03:40:36;16.90;76.80
14727;DHT22;7454;51.256;8.176;2023-07-24T03:43:03;16.90;76.70
14727;DHT22;7454;51.256;8.176;2023-07-24T03:45:29;17.00;76.80
14727;DHT22;7454;51.256;8.176;2023-07-24T03:47:55;17.00;76.70
14727;DHT22;7454;51.256;8.176;2023-07-24T03:50:20;17.10;76.90
14727;DHT22;7454;51.256;8.176;2023-07-24T03:52:46;17.00;76.90
14727;DHT22;7454;51.256;8.176;2023-07-24T03:55:11;17.00;76.90
14727;DHT22;7454;51.256;8.176;2023-07-24T03:57:37;17.00;76.90
14727;DHT22;7454;51.256;8.176;2023-07-24T04:00:05;17.00;76.90
14727;DHT22;7454;51.256;8.176;2023-07-24T04:02:37;16.90;76.90
14727;DHT22;7454;51.256;8.176;2023-07-24T04:05:04;17.00;77.00
14727;DHT22;7454;51.256;8.176;2023-07-24T04:07:30;17.00;77.00
14727;DHT22;7454;51.256;8.176;2023-07-24T04:09:56;17.00;77.00
14727;DHT22;7454;51.256;8.176;2023-07-24T04:12:22;17.00;77.00
14727;DHT22;7454;51.256;8.176;2023-07-24T04:14:47;16.90;76.90
14727;DHT22;7454;51.256;8.176;2023-07-24T04:17:14;17.00;76.90
14727;DHT22;7454;51.256;8.176;2023-07-24T04:19:41;16.90;77.00
14727;DHT22;7454;51.256;8.176;2023-07-24T04:22:06;16.80;76.90
14727;DHT22;7454;51.256;8.176;2023-07-24T04:24:32;16.90;77.00
14727;DHT22;7454;51.256;8.176;2023-07-24T04:26:58;16.80;76.90
14727;DHT22;7454;51.256;8.176;2023-07-24T04:29:23;17.10;77.00
14727;DHT22;7454;51.256;8.176;2023-07-24T04:31:51;16.90;77.00
14727;DHT22;7454;51.256;8.176;2023-07-24T04:34:17;16.90;76.90
14727;DHT22;7454;51.256;8.176;2023-07-24T04:36:43;17.00;77.00
14727;DHT22;7454;51.256;8.176;2023-07-24T04:39:08;17.00;77.00
14727;DHT22;7454;51.256;8.176;2023-07-24T04:41:34;16.90;77.00
14727;DHT22;7454;51.256;8.176;2023-07-24T04:44:00;17.00;77.00
14727;DHT22;7454;51.256;8.176;2023-07-24T04:46:25;16.90;76.90
14727;DHT22;7454;51.256;8.176;2023-07-24T04:48:51;17.00;77.00
14727;DHT22;7454;51.256;8.176;2023-07-24T04:51:17;17.00;77.00
14727;DHT22;7454;51.256;8.176;2023-07-24T04:53:44;17.00;77.10
14727;DHT22;7454;51.256;8.176;2023-07-24T04:56:10;17.10;77.20
14727;DHT22;7454;51.256;8.176;2023-07-24T04:58:36;17.10;77.20
14727;DHT22;7454;51.256;8.176;2023-07-24T05:01:04;17.20;77.20
14727;DHT22;7454;51.256;8.176;2023-07-24T05:03:30;17.10;77.20
14727;DHT22;7454;51.256;8.176;2023-07-24T05:05:57;17.20;77.20
14727;DHT22;7454;51.256;8.176;2023-07-24T05:08:22;17.20;77.20
14727;DHT22;7454;51.256;8.176;2023-07-24T05:10:55;17.30;77.30
14727;DHT22;7454;51.256;8.176;2023-07-24T05:13:21;17.30;77.30
14727;DHT22;7454;51.256;8.176;2023-07-24T05:15:47;17.30;77.20
14727;DHT22;7454;51.256;8.176;2023-07-24T05:18:12;17.30;77.10
14727;DHT22;7454;51.256;8.176;2023-07-24T05:20:38;17.30;77.10
14727;DHT22;7454;51.256;8.176;2023-07-24T05:23:08;17.40;77.20
14727;DHT22;7454;51.256;8.176;2023-07-24T05:25:34;17.40;77.30
14727;DHT22;7454;51.256;8.176;2023-07-24T05:28:00;17.60;77.40
14727;DHT22;7454;51.256;8.176;2023-07-24T05:30:25;17.50;77.30
14727;DHT22;7454;51.256;8.176;2023-07-24T05:32:51;17.40;77.20
14727;DHT22;7454;51.256;8.176;2023-07-24T05:35:16;17.50;77.20
14727;DHT22;7454;51.256;8.176;2023-07-24T05:37:42;17.60;77.20
14727;DHT22;7454;51.256;8.176;2023-07-24T05:40:08;17.70;77.30
14727;DHT22;7454;51.256;8.176;2023-07-24T05:42:34;17.70;77.20
14727;DHT22;7454;51.256;8.176;2023-07-24T05:45:05;17.70;77.10
14727;DHT22;7454;51.256;8.176;2023-07-24T05:47:31;17.70;77.20
14727;DHT22;7454;51.256;8.176;2023-07-24T05:49:57;17.60;77.10
14727;DHT22;7454;51.256;8.176;2023-07-24T05:52:23;17.80;77.10
14727;DHT22;7454;51.256;8.176;2023-07-24T05:54:48;17.80;77.20
14727;DHT22;7454;51.256;8.176;2023-07-24T05:57:14;17.80;77.20
14727;DHT22;7454;51.256;8.176;2023-07-24T05:59:46;17.80;77.20
14727;DHT22;7454;51.256;8.176;2023-07-24T06:02:11;17.80;77.20
14727;DHT22;7454;51.256;8.176;2023-07-24T06:04:37;17.90;77.20
14727;DHT22;7454;51.256;8.176;2023-07-24T06:07:03;17.90;77.10
14727;DHT22;7454;51.256;8.176;2023-07-24T06:09:29;18.00;77.00
14727;DHT22;7454;51.256;8.176;2023-07-24T06:11:54;18.00;76.80
14727;DHT22;7454;51.256;8.176;2023-07-24T06:14:20;18.10;76.80
14727;DHT22;7454;51.256;8.176;2023-07-24T06:16:46;18.10;76.80
14727;DHT22;7454;51.256;8.176;2023-07-24T06:19:11;18.10;76.70
14727;DHT22;7454;51.256;8.176;2023-07-24T06:21:37;18.10;76.70
14727;DHT22;7454;51.256;8.176;2023-07-24T06:24:03;18.20;76.70
14727;DHT22;7454;51.256;8.176;2023-07-24T06:26:28;18.30;76.70
14727;DHT22;7454;51.256;8.176;2023-07-24T06:28:54;18.40;76.60
14727;DHT22;7454;51.256;8.176;2023-07-24T06:31:20;18.50;76.50
14727;DHT22;7454;51.256;8.176;2023-07-24T06:33:49;18.60;76.40
14727;DHT22;7454;51.256;8.176;2023-07-24T06:36:15;18.70;76.30
14727;DHT22;7454;51.256;8.176;2023-07-24T06:38:40;18.60;76.30
14727;DHT22;7454;51.256;8.176;2023-07-24T06:41:07;18.60;75.80
14727;DHT22;7454;51.256;8.176;2023-07-24T06:43:33;18.60;75.90
14727;DHT22;7454;51.256;8.176;2023-07-24T06:45:59;18.60;75.90
14727;DHT22;7454;51.256;8.176;2023-07-24T06:48:27;18.70;75.80
14727;DHT22;7454;51.256;8.176;2023-07-24T06:50:55;18.70;75.80
14727;DHT22;7454;51.256;8.176;2023-07-24T06:53:21;18.70;75.80
14727;DHT22;7454;51.256;8.176;2023-07-24T06:55:47;18.60;75.60
14727;DHT22;7454;51.256;8.176;2023-07-24T06:58:12;18.70;75.70
14727;DHT22;7454;51.256;8.176;2023-07-24T07:00:38;18.70;75.50
14727;DHT22;7454;51.256;8.176;2023-07-24T07:03:04;18.70;75.60
14727;DHT22;7454;51.256;8.176;2023-07-24T07:05:31;18.80;75.50
14727;DHT22;7454;51.256;8.176;2023-07-24T07:07:57;18.90;75.60
14727;DHT22;7454;51.256;8.176;2023-07-24T07:10:23;18.90;75.50
14727;DHT22;7454;51.256;8.176;2023-07-24T07:12:48;18.90;75.40
14727;DHT22;7454;51.256;8.176;2023-07-24T07:15:14;19.00;75.50
14727;DHT22;7454;51.256;8.176;2023-07-24T07:17:40;19.10;75.60
14727;DHT22;7454;51.256;8.176;2023-07-24T07:20:06;19.10;75.40
14727;DHT22;7454;51.256;8.176;2023-07-24T07:22:32;19.20;75.40
14727;DHT22;7454;51.256;8.176;2023-07-24T07:24:57;19.30;75.40
14727;DHT22;7454;51.256;8.176;2023-07-24T07:27:23;19.30;75.30
14727;DHT22;7454;51.256;8.176;2023-07-24T07:29:49;19.40;75.20
14727;DHT22;7454;51.256;8.176;2023-07-24T07:32:14;19.50;75.30
14727;DHT22;7454;51.256;8.176;2023-07-24T07:34:40;19.40;75.00
14727;DHT22;7454;51.256;8.176;2023-07-24T07:37:06;19.60;75.10
14727;DHT22;7454;51.256;8.176;2023-07-24T07:39:31;19.50;75.00
14727;DHT22;7454;51.256;8.176;2023-07-24T07:41:58;19.50;74.90
14727;DHT22;7454;51.256;8.176;2023-07-24T07:44:23;19.60;75.10
14727;DHT22;7454;51.256;8.176;2023-07-24T07:46:49;19.50;75.00
14727;DHT22;7454;51.256;8.176;2023-07-24T07:49:15;19.50;74.80
14727;DHT22;7454;51.256;8.176;2023-07-24T07:51:40;19.50;74.90
14727;DHT22;7454;51.256;8.176;2023-07-24T07:54:06;19.50;75.00
14727;DHT22;7454;51.256;8.176;2023-07-24T07:56:32;19.50;74.90
14727;DHT22;7454;51.256;8.176;2023-07-24T07:58:57;19.50;74.80
14727;DHT22;7454;51.256;8.176;2023-07-24T08:01:23;19.40;74.70
14727;DHT22;7454;51.256;8.176;2023-07-24T08:03:49;19.50;74.80
14727;DHT22;7454;51.256;8.176;2023-07-24T08:06:14;19.50;74.70
14727;DHT22;7454;51.256;8.176;2023-07-24T08:08:40;19.50;74.70
14727;DHT22;7454;51.256;8.176;2023-07-24T08:11:06;19.50;74.70
14727;DHT22;7454;51.256;8.176;2023-07-24T08:13:32;19.50;74.80
14727;DHT22;7454;51.256;8.176;2023-07-24T08:15:58;19.60;74.70
14727;DHT22;7454;51.256;8.176;2023-07-24T08:18:25;19.70;74.50
14727;DHT22;7454;51.256;8.176;2023-07-24T08:20:51;19.80;74.60
14727;DHT22;7454;51.256;8.176;2023-07-24T08:23:16;19.90;74.90
14727;DHT22;7454;51.256;8.176;2023-07-24T08:25:52;20.10;74.80
14727;DHT22;7454;51.256;8.176;2023-07-24T08:28:18;20.10;74.70
14727;DHT22;7454;51.256;8.176;2023-07-24T08:30:44;20.20;74.50
14727;DHT22;7454;51.256;8.176;2023-07-24T08:33:12;20.30;74.40
14727;DHT22;7454;51.256;8.176;2023-07-24T08:35:38;20.40;74.30
14727;DHT22;7454;51.256;8.176;2023-07-24T08:38:03;20.40;74.30
14727;DHT22;7454;51.256;8.176;2023-07-24T08:40:29;20.40;74.30
14727;DHT22;7454;51.256;8.176;2023-07-24T08:42:55;20.40;74.30
14727;DHT22;7454;51.256;8.176;2023-07-24T08:45:21;20.50;74.20
14727;DHT22;7454;51.256;8.176;2023-07-24T08:47:48;20.50;74.10
14727;DHT22;7454;51.256;8.176;2023-07-24T08:50:15;20.50;74.20
14727;DHT22;7454;51.256;8.176;2023-07-24T08:52:42;20.50;74.00
14727;DHT22;7454;51.256;8.176;2023-07-24T08:55:10;20.50;74.00
14727;DHT22;7454;51.256;8.176;2023-07-24T08:57:36;20.50;73.70
14727;DHT22;7454;51.256;8.176;2023-07-24T09:00:03;20.50;73.70
14727;DHT22;7454;51.256;8.176;2023-07-24T09:02:32;20.50;73.60
14727;DHT22;7454;51.256;8.176;2023-07-24T09:04:59;20.50;73.60
14727;DHT22;7454;51.256;8.176;2023-07-24T09:07:25;20.60;73.60
14727;DHT22;7454;51.256;8.176;2023-07-24T09:09:55;20.70;73.80
14727;DHT22;7454;51.256;8.176;2023-07-24T09:12:22;20.70;73.50
14727;DHT22;7454;51.256;8.176;2023-07-24T09:14:49;20.80;73.50
14727;DHT22;7454;51.256;8.176;2023-07-24T09:17:26;20.80;73.40
14727;DHT22;7454;51.256;8.176;2023-07-24T09:19:55;21.00;73.70
14727;DHT22;7454;51.256;8.176;2023-07-24T09:22:21;21.10;73.50
14727;DHT22;7454;51.256;8.176;2023-07-24T09:24:50;21.10;73.20
14727;DHT22;7454;51.256;8.176;2023-07-24T09:27:17;21.10;73.20
14727;DHT22;7454;51.256;8.176;2023-07-24T09:29:44;21.10;73.20
14727;DHT22;7454;51.256;8.176;2023-07-24T09:32:20;21.10;73.20
14727;DHT22;7454;51.256;8.176;2023-07-24T09:34:48;21.10;73.10
14727;DHT22;7454;51.256;8.176;2023-07-24T09:37:24;21.10;73.20
14727;DHT22;7454;51.256;8.176;2023-07-24T09:39:58;21.20;73.00
14727;DHT22;7454;51.256;8.176;2023-07-24T09:42:34;21.30;73.40
14727;DHT22;7454;51.256;8.176;2023-07-24T09:45:04;21.40;72.80
14727;DHT22;7454;51.256;8.176;2023-07-24T09:47:31;21.50;72.80
14727;DHT22;7454;51.256;8.176;2023-07-24T09:49:57;21.70;72.80
14727;DHT22;7454;51.256;8.176;2023-07-24T09:52:24;21.70;72.60
14727;DHT22;7454;51.256;8.176;2023-07-24T09:54:55;21.90;72.90
14727;DHT22;7454;51.256;8.176;2023-07-24T09:57:32;21.90;72.60
14727;DHT22;7454;51.256;8.176;2023-07-24T09:59:58;22.10;72.60
14727;DHT22;7454;51.256;8.176;2023-07-24T10:02:24;22.00;72.60
14727;DHT22;7454;51.256;8.176;2023-07-24T10:04:50;22.10;72.50
14727;DHT22;7454;51.256;8.176;2023-07-24T10:07:16;22.10;72.70
14727;DHT22;7454;51.256;8.176;2023-07-24T10:09:43;22.20;72.50
14727;DHT22;7454;51.256;8.176;2023-07-24T10:12:09;22.20;72.70
14727;DHT22;7454;51.256;8.176;2023-07-24T10:14:36;22.30;72.50
14727;DHT22;7454;51.256;8.176;2023-07-24T10:17:03;22.40;72.40
14727;DHT22;7454;51.256;8.176;2023-07-24T10:19:36;22.50;72.40
14727;DHT22;7454;51.256;8.176;2023-07-24T10:22:18;22.50;72.10
14727;DHT22;7454;51.256;8.176;2023-07-24T10:24:46;22.50;72.20
14727;DHT22;7454;51.256;8.176;2023-07-24T10:27:12;22.50;72.10
14727;DHT22;7454;51.256;8.176;2023-07-24T10:29:38;22.40;72.10
14727;DHT22;7454;51.256;8.176;2023-07-24T10:32:16;22.30;72.30
14727;DHT22;7454;51.256;8.176;2023-07-24T10:34:42;22.40;72.20
14727;DHT22;7454;51.256;8.176;2023-07-24T10:37:08;22.50;72.00
14727;DHT22;7454;51.256;8.176;2023-07-24T10:39:39;22.50;72.10
14727;DHT22;7454;51.256;8.176;2023-07-24T10:42:07;22.50;72.10
14727;DHT22;7454;51.256;8.176;2023-07-24T10:44:34;22.60;72.20
14727;DHT22;7454;51.256;8.176;2023-07-24T10:47:00;22.70;72.00
14727;DHT22;7454;51.256;8.176;2023-07-24T10:49:26;22.60;71.60
14727;DHT22;7454;51.256;8.176;2023-07-24T10:51:56;22.60;71.80
14727;DHT22;7454;51.256;8.176;2023-07-24T10:54:22;22.60;71.80
14727;DHT22;7454;51.256;8.176;2023-07-24T10:56:48;22.50;71.80
14727;DHT22;7454;51.256;8.176;2023-07-24T10:59:13;22.50;71.80
14727;DHT22;7454;51.256;8.176;2023-07-24T11:01:40;22.50;72.00
14727;DHT22;7454;51.256;8.176;2023-07-24T11:04:06;22.50;71.70
14727;DHT22;7454;51.256;8.176;2023-07-24T11:06:32;22.60;71.70
14727;DHT22;7454;51.256;8.176;2023-07-24T11:08:58;22.50;71.60
14727;DHT22;7454;51.256;8.176;2023-07-24T11:11:32;22.50;71.60
14727;DHT22;7454;51.256;8.176;2023-07-24T11:14:00;22.40;71.80
14727;DHT22;7454;51.256;8.176;2023-07-24T11:16:27;22.30;71.70
14727;DHT22;7454;51.256;8.176;2023-07-24T11:18:52;22.20;72.40
14727;DHT22;7454;51.256;8.176;2023-07-24T11:21:20;22.00;72.50
14727;DHT22;7454;51.256;8.176;2023-07-24T11:23:51;21.90;72.60
14727;DHT22;7454;51.256;8.176;2023-07-24T11:26:21;22.00;73.20
14727;DHT22;7454;51.256;8.176;2023-07-24T11:28:48;22.00;73.10
14727;DHT22;7454;51.256;8.176;2023-07-24T11:31:15;22.10;73.40
14727;DHT22;7454;51.256;8.176;2023-07-24T11:33:41;22.10;72.80
14727;DHT22;7454;51.256;8.176;2023-07-24T11:36:07;22.10;73.20
14727;DHT22;7454;51.256;8.176;2023-07-24T11:38:33;22.10;72.80
14727;DHT22;7454;51.256;8.176;2023-07-24T11:40:59;22.10;73.00
14727;DHT22;7454;51.256;8.176;2023-07-24T11:43:25;22.20;72.90
14727;DHT22;7454;51.256;8.176;2023-07-24T11:45:52;22.20;72.80
14727;DHT22;7454;51.256;8.176;2023-07-24T11:48:22;22.30;72.70
14727;DHT22;7454;51.256;8.176;2023-07-24T11:50:54;22.30;72.30
14727;DHT22;7454;51.256;8.176;2023-07-24T11:53:30;22.40;72.30
14727;DHT22;7454;51.256;8.176;2023-07-24T11:55:59;22.60;72.50
14727;DHT22;7454;51.256;8.176;2023-07-24T11:58:28;22.70;72.50
14727;DHT22;7454;51.256;8.176;2023-07-24T12:00:55;22.90;72.60
14727;DHT22;7454;51.256;8.176;2023-07-24T12:03:21;22.90;72.40
14727;DHT22;7454;51.256;8.176;2023-07-24T12:05:49;23.00;72.10
14727;DHT22;7454;51.256;8.176;2023-07-24T12:08:16;23.00;71.80
14727;DHT22;7454;51.256;8.176;2023-07-24T12:10:44;23.00;71.80
14727;DHT22;7454;51.256;8.176;2023-07-24T12:13:09;23.00;71.70
14727;DHT22;7454;51.256;8.176;2023-07-24T12:15:35;22.90;71.80
14727;DHT22;7454;51.256;8.176;2023-07-24T12:18:03;22.90;71.80
14727;DHT22;7454;51.256;8.176;2023-07-24T12:20:29;22.90;71.50
14727;DHT22;7454;51.256;8.176;2023-07-24T12:22:56;22.90;71.60
14727;DHT22;7454;51.256;8.176;2023-07-24T12:25:22;22.90;71.60
14727;DHT22;7454;51.256;8.176;2023-07-24T12:27:48;22.90;71.90
14727;DHT22;7454;51.256;8.176;2023-07-24T12:30:14;22.90;71.80
14727;DHT22;7454;51.256;8.176;2023-07-24T12:32:40;23.00;71.70
14727;DHT22;7454;51.256;8.176;2023-07-24T12:35:07;23.10;71.70
14727;DHT22;7454;51.256;8.176;2023-07-24T12:37:33;23.20;72.10
14727;DHT22;7454;51.256;8.176;2023-07-24T12:39:59;23.20;71.70
14727;DHT22;7454;51.256;8.176;2023-07-24T12:42:25;23.20;71.40
14727;DHT22;7454;51.256;8.176;2023-07-24T12:44:52;23.30;71.40
14727;DHT22;7454;51.256;8.176;2023-07-24T12:47:17;23.40;71.40
14727;DHT22;7454;51.256;8.176;2023-07-24T12:49:43;23.50;71.40
14727;DHT22;7454;51.256;8.176;2023-07-24T12:52:09;23.50;70.90
14727;DHT22;7454;51.256;8.176;2023-07-24T12:54:35;23.50;70.90
14727;DHT22;7454;51.256;8.176;2023-07-24T12:57:02;23.50;71.00
14727;DHT22;7454;51.256;8.176;2023-07-24T12:59:28;23.40;70.90
14727;DHT22;7454;51.256;8.176;2023-07-24T13:01:54;23.30;70.80
14727;DHT22;7454;51.256;8.176;2023-07-24T13:04:23;23.10;70.70
14727;DHT22;7454;51.256;8.176;2023-07-24T13:06:49;22.90;71.00
14727;DHT22;7454;51.256;8.176;2023-07-24T13:09:14;22.80;71.60
14727;DHT22;7454;51.256;8.176;2023-07-24T13:11:40;22.40;72.30
14727;DHT22;7454;51.256;8.176;2023-07-24T13:14:06;21.50;73.20
14727;DHT22;7454;51.256;8.176;2023-07-24T13:16:31;21.00;73.70
14727;DHT22;7454;51.256;8.176;2023-07-24T13:18:57;20.60;73.90
14727;DHT22;7454;51.256;8.176;2023-07-24T13:21:23;20.30;74.20
14727;DHT22;7454;51.256;8.176;2023-07-24T13:23:49;20.10;74.30
14727;DHT22;7454;51.256;8.176;2023-07-24T13:26:15;20.00;74.30
14727;DHT22;7454;51.256;8.176;2023-07-24T13:28:41;19.80;74.90
14727;DHT22;7454;51.256;8.176;2023-07-24T13:31:19;19.70;74.80
14727;DHT22;7454;51.256;8.176;2023-07-24T13:33:49;19.60;75.00
14727;DHT22;7454;51.256;8.176;2023-07-24T13:36:15;19.50;75.00
14727;DHT22;7454;51.256;8.176;2023-07-24T13:38:41;19.40;75.30
14727;DHT22;7454;51.256;8.176;2023-07-24T13:41:07;19.30;75.40
14727;DHT22;7454;51.256;8.176;2023-07-24T13:43:36;19.20;75.40
14727;DHT22;7454;51.256;8.176;2023-07-24T13:46:01;19.30;75.20
14727;DHT22;7454;51.256;8.176;2023-07-24T13:48:30;19.40;75.30
14727;DHT22;7454;51.256;8.176;2023-07-24T13:50:56;19.40;75.40
14727;DHT22;7454;51.256;8.176;2023-07-24T13:53:23;19.60;75.70
14727;DHT22;7454;51.256;8.176;2023-07-24T13:55:50;19.60;75.10
14727;DHT22;7454;51.256;8.176;2023-07-24T13:58:16;19.70;75.60
14727;DHT22;7454;51.256;8.176;2023-07-24T14:00:42;19.70;75.10
14727;DHT22;7454;51.256;8.176;2023-07-24T14:03:08;19.80;75.30
14727;DHT22;7454;51.256;8.176;2023-07-24T14:05:34;19.90;75.50
14727;DHT22;7454;51.256;8.176;2023-07-24T14:08:02;20.00;75.70
14727;DHT22;7454;51.256;8.176;2023-07-24T14:10:28;20.10;75.60
14727;DHT22;7454;51.256;8.176;2023-07-24T14:12:53;20.20;75.60
14727;DHT22;7454;51.256;8.176;2023-07-24T14:15:19;20.10;75.40
14727;DHT22;7454;51.256;8.176;2023-07-24T14:17:45;20.20;75.40
14727;DHT22;7454;51.256;8.176;2023-07-24T14:20:10;20.20;75.50
14727;DHT22;7454;51.256;8.176;2023-07-24T14:22:36;20.10;75.00
14727;DHT22;7454;51.256;8.176;2023-07-24T14:25:02;20.10;74.90
14727;DHT22;7454;51.256;8.176;2023-07-24T14:27:28;20.00;75.10
14727;DHT22;7454;51.256;8.176;2023-07-24T14:29:54;20.00;75.30
14727;DHT22;7454;51.256;8.176;2023-07-24T14:32:19;20.00;75.20
14727;DHT22;7454;51.256;8.176;2023-07-24T14:34:49;20.00;75.40
14727;DHT22;7454;51.256;8.176;2023-07-24T14:37:16;20.10;75.50
14727;DHT22;7454;51.256;8.176;2023-07-24T14:39:41;20.10;75.90
14727;DHT22;7454;51.256;8.176;2023-07-24T14:42:07;20.20;75.30
14727;DHT22;7454;51.256;8.176;2023-07-24T14:44:32;20.10;75.40
14727;DHT22;7454;51.256;8.176;2023-07-24T14:46:58;20.10;75.50
14727;DHT22;7454;51.256;8.176;2023-07-24T14:49:24;20.10;75.30
14727;DHT22;7454;51.256;8.176;2023-07-24T14:51:50;20.10;75.20
14727;DHT22;7454;51.256;8.176;2023-07-24T14:54:16;20.00;75.40
14727;DHT22;7454;51.256;8.176;2023-07-24T14:56:42;20.00;75.40
14727;DHT22;7454;51.256;8.176;2023-07-24T14:59:08;19.90;75.40
14727;DHT22;7454;51.256;8.176;2023-07-24T15:01:34;19.90;75.40
14727;DHT22;7454;51.256;8.176;2023-07-24T15:03:59;19.80;75.50
14727;DHT22;7454;51.256;8.176;2023-07-24T15:06:25;19.80;75.40
14727;DHT22;7454;51.256;8.176;2023-07-24T15:08:50;19.70;75.50
14727;DHT22;7454;51.256;8.176;2023-07-24T15:11:21;19.60;75.40
14727;DHT22;7454;51.256;8.176;2023-07-24T15:13:51;19.60;75.60
14727;DHT22;7454;51.256;8.176;2023-07-24T15:16:17;19.60;75.70
14727;DHT22;7454;51.256;8.176;2023-07-24T15:18:43;19.70;75.90
14727;DHT22;7454;51.256;8.176;2023-07-24T15:21:09;19.80;76.20
14727;DHT22;7454;51.256;8.176;2023-07-24T15:23:35;19.90;76.20
14727;DHT22;7454;51.256;8.176;2023-07-24T15:26:00;20.10;76.00
14727;DHT22;7454;51.256;8.176;2023-07-24T15:28:26;20.20;76.20
14727;DHT22;7454;51.256;8.176;2023-07-24T15:30:52;20.20;76.00
14727;DHT22;7454;51.256;8.176;2023-07-24T15:33:18;20.30;76.10
14727;DHT22;7454;51.256;8.176;2023-07-24T15:35:44;20.20;76.00
14727;DHT22;7454;51.256;8.176;2023-07-24T15:38:09;20.20;75.70
14727;DHT22;7454;51.256;8.176;2023-07-24T15:40:35;20.30;76.00